sensor_id;sensor_type;location;lat;lon;timestamp;P1;durP1;ratioP1;P2;durP2;ratioP2
211;SDS011;16228;48.800;9.002;2023-10-13T00:01:07;184.00;;;174.73;;
211;SDS011;16228;48.800;9.002;2023-10-13T00:03:37;172.27;;;163.97;;
211;SDS011;16228;48.800;9.002;2023-10-13T00:06:05;168.47;;;160.37;;
211;SDS011;16228;48.800;9.002;2023-10-13T00:08:34;201.40;;;191.80;;
211;SDS011;16228;48.800;9.002;2023-10-13T00:11:05;194.53;;;185.13;;
211;SDS011;16228;48.800;9.002;2023-10-13T00:13:34;166.20;;;158.00;;
211;SDS011;16228;48.800;9.002;2023-10-13T00:16:09;151.03;;;142.63;;
211;SDS011;16228;48.800;9.002;2023-10-13T00:18:42;204.50;;;194.77;;
211;SDS011;16228;48.800;9.002;2023-10-13T00:21:09;158.57;;;150.43;;
211;SDS011;16228;48.800;9.002;2023-10-13T00:23:45;143.70;;;136.47;;
211;SDS011;16228;48.800;9.002;2023-10-13T00:26:18;177.07;;;168.50;;
211;SDS011;16228;48.800;9.002;2023-10-13T00:28:49;243.97;;;229.60;;
211;SDS011;16228;48.800;9.002;2023-10-13T00:31:25;176.00;;;167.53;;
211;SDS011;16228;48.800;9.002;2023-10-13T00:33:58;279.60;;;264.83;;
211;SDS011;16228;48.800;9.002;2023-10-13T00:36:34;287.20;;;272.00;;
211;SDS011;16228;48.800;9.002;2023-10-13T00:39:01;132.00;;;125.67;;
211;SDS011;16228;48.800;9.002;2023-10-13T00:41:30;201.83;;;191.67;;
211;SDS011;16228;48.800;9.002;2023-10-13T00:44:16;255.27;;;239.37;;
211;SDS011;16228;48.800;9.002;2023-10-13T00:46:44;289.03;;;274.20;;
211;SDS011;16228;48.800;9.002;2023-10-13T00:49:10;276.97;;;258.73;;
211;SDS011;16228;48.800;9.002;2023-10-13T00:51:41;348.80;;;328.73;;
211;SDS011;16228;48.800;9.002;2023-10-13T00:54:12;370.27;;;344.83;;
211;SDS011;16228;48.800;9.002;2023-10-13T00:56:43;259.83;;;245.83;;
211;SDS011;16228;48.800;9.002;2023-10-13T00:59:15;383.40;;;358.17;;
211;SDS011;16228;48.800;9.002;2023-10-13T01:01:41;359.90;;;339.30;;
211;SDS011;16228;48.800;9.002;2023-10-13T01:04:11;333.70;;;314.90;;
211;SDS011;16228;48.800;9.002;2023-10-13T01:06:38;312.37;;;294.83;;
211;SDS011;16228;48.800;9.002;2023-10-13T01:09:06;193.17;;;182.20;;
211;SDS011;16228;48.800;9.002;2023-10-13T01:11:38;247.10;;;234.70;;
211;SDS011;16228;48.800;9.002;2023-10-13T01:14:05;303.50;;;287.53;;
211;SDS011;16228;48.800;9.002;2023-10-13T01:16:32;331.23;;;312.40;;
211;SDS011;16228;48.800;9.002;2023-10-13T01:18:58;305.57;;;288.97;;
211;SDS011;16228;48.800;9.002;2023-10-13T01:21:31;150.90;;;143.07;;
211;SDS011;16228;48.800;9.002;2023-10-13T01:24:00;433.27;;;406.50;;
211;SDS011;16228;48.800;9.002;2023-10-13T01:26:33;341.90;;;318.23;;
211;SDS011;16228;48.800;9.002;2023-10-13T01:29:04;187.27;;;177.43;;
211;SDS011;16228;48.800;9.002;2023-10-13T01:31:37;337.97;;;316.73;;
211;SDS011;16228;48.800;9.002;2023-10-13T01:34:11;254.07;;;240.57;;
211;SDS011;16228;48.800;9.002;2023-10-13T01:36:39;226.93;;;214.50;;
211;SDS011;16228;48.800;9.002;2023-10-13T01:39:08;320.77;;;303.07;;
211;SDS011;16228;48.800;9.002;2023-10-13T01:41:41;288.20;;;272.03;;
211;SDS011;16228;48.800;9.002;2023-10-13T01:44:08;246.77;;;233.63;;
211;SDS011;16228;48.800;9.002;2023-10-13T01:46:36;250.10;;;237.00;;
211;SDS011;16228;48.800;9.002;2023-10-13T01:49:04;226.70;;;215.30;;
211;SDS011;16228;48.800;9.002;2023-10-13T01:51:33;373.47;;;350.60;;
211;SDS011;16228;48.800;9.002;2023-10-13T01:53:59;220.97;;;209.57;;
211;SDS011;16228;48.800;9.002;2023-10-13T01:56:30;231.60;;;219.30;;
211;SDS011;16228;48.800;9.002;2023-10-13T01:58:57;146.50;;;139.30;;
211;SDS011;16228;48.800;9.002;2023-10-13T02:01:24;217.20;;;206.47;;
211;SDS011;16228;48.800;9.002;2023-10-13T02:03:58;217.07;;;205.43;;
211;SDS011;16228;48.800;9.002;2023-10-13T02:06:48;166.13;;;157.73;;
211;SDS011;16228;48.800;9.002;2023-10-13T02:09:14;261.90;;;247.40;;
211;SDS011;16228;48.800;9.002;2023-10-13T02:11:52;147.60;;;140.43;;
211;SDS011;16228;48.800;9.002;2023-10-13T02:14:19;152.33;;;145.13;;
211;SDS011;16228;48.800;9.002;2023-10-13T02:16:47;231.87;;;220.33;;
211;SDS011;16228;48.800;9.002;2023-10-13T02:19:16;228.00;;;216.27;;
211;SDS011;16228;48.800;9.002;2023-10-13T02:21:44;187.13;;;177.37;;
211;SDS011;16228;48.800;9.002;2023-10-13T02:24:10;135.10;;;128.27;;
211;SDS011;16228;48.800;9.002;2023-10-13T02:26:43;145.03;;;138.07;;
211;SDS011;16228;48.800;9.002;2023-10-13T02:29:11;105.63;;;99.83;;
211;SDS011;16228;48.800;9.002;2023-10-13T02:31:39;176.47;;;167.77;;
211;SDS011;16228;48.800;9.002;2023-10-13T02:34:19;126.30;;;119.70;;
211;SDS011;16228;48.800;9.002;2023-10-13T02:36:48;217.53;;;206.43;;
211;SDS011;16228;48.800;9.002;2023-10-13T02:39:14;143.60;;;136.13;;
211;SDS011;16228;48.800;9.002;2023-10-13T02:41:42;123.83;;;117.63;;
211;SDS011;16228;48.800;9.002;2023-10-13T02:44:15;175.40;;;166.47;;
211;SDS011;16228;48.800;9.002;2023-10-13T02:46:52;132.10;;;124.73;;
211;SDS011;16228;48.800;9.002;2023-10-13T02:49:20;125.70;;;119.53;;
211;SDS011;16228;48.800;9.002;2023-10-13T02:51:46;133.33;;;126.90;;
211;SDS011;16228;48.800;9.002;2023-10-13T02:54:13;128.43;;;121.87;;
211;SDS011;16228;48.800;9.002;2023-10-13T02:56:43;115.00;;;109.20;;
211;SDS011;16228;48.800;9.002;2023-10-13T02:59:23;115.60;;;110.27;;
211;SDS011;16228;48.800;9.002;2023-10-13T03:01:59;109.63;;;104.40;;
211;SDS011;16228;48.800;9.002;2023-10-13T03:04:31;138.50;;;131.47;;
211;SDS011;16228;48.800;9.002;2023-10-13T03:06:58;143.70;;;136.50;;
211;SDS011;16228;48.800;9.002;2023-10-13T03:09:25;152.50;;;144.93;;
211;SDS011;16228;48.800;9.002;2023-10-13T03:11:51;135.77;;;128.93;;
211;SDS011;16228;48.800;9.002;2023-10-13T03:14:19;113.23;;;107.23;;
211;SDS011;16228;48.800;9.002;2023-10-13T03:16:58;168.00;;;159.67;;
211;SDS011;16228;48.800;9.002;2023-10-13T03:19:28;270.27;;;254.20;;
211;SDS011;16228;48.800;9.002;2023-10-13T03:21:58;124.30;;;118.10;;
211;SDS011;16228;48.800;9.002;2023-10-13T03:24:31;141.83;;;135.20;;
211;SDS011;16228;48.800;9.002;2023-10-13T03:26:59;116.43;;;110.97;;
211;SDS011;16228;48.800;9.002;2023-10-13T03:29:34;124.20;;;117.93;;
211;SDS011;16228;48.800;9.002;2023-10-13T03:32:03;213.97;;;203.90;;
211;SDS011;16228;48.800;9.002;2023-10-13T03:34:32;163.43;;;155.27;;
211;SDS011;16228;48.800;9.002;2023-10-13T03:37:00;238.20;;;225.83;;
211;SDS011;16228;48.800;9.002;2023-10-13T03:39:37;187.87;;;178.70;;
211;SDS011;16228;48.800;9.002;2023-10-13T03:42:04;191.57;;;182.17;;
211;SDS011;16228;48.800;9.002;2023-10-13T03:44:36;109.20;;;103.83;;
211;SDS011;16228;48.800;9.002;2023-10-13T03:47:05;131.53;;;125.07;;
211;SDS011;16228;48.800;9.002;2023-10-13T03:49:43;145.47;;;138.10;;
211;SDS011;16228;48.800;9.002;2023-10-13T03:52:16;137.73;;;131.10;;
211;SDS011;16228;48.800;9.002;2023-10-13T03:54:47;260.37;;;245.17;;
211;SDS011;16228;48.800;9.002;2023-10-13T03:57:16;113.93;;;108.43;;
211;SDS011;16228;48.800;9.002;2023-10-13T03:59:44;165.23;;;157.00;;
211;SDS011;16228;48.800;9.002;2023-10-13T04:02:15;165.03;;;156.87;;
211;SDS011;16228;48.800;9.002;2023-10-13T04:04:47;125.43;;;119.23;;
211;SDS011;16228;48.800;9.002;2023-10-13T04:07:20;111.00;;;105.57;;
211;SDS011;16228;48.800;9.002;2023-10-13T04:10:01;115.00;;;109.17;;
211;SDS011;16228;48.800;9.002;2023-10-13T04:12:45;113.50;;;107.77;;
211;SDS011;16228;48.800;9.002;2023-10-13T04:15:30;145.30;;;138.53;;
211;SDS011;16228;48.800;9.002;2023-10-13T04:18:09;156.90;;;149.17;;
211;SDS011;16228;48.800;9.002;2023-10-13T04:20:59;122.87;;;116.80;;
211;SDS011;16228;48.800;9.002;2023-10-13T04:23:44;150.80;;;144.00;;
211;SDS011;16228;48.800;9.002;2023-10-13T04:26:25;152.80;;;146.00;;
211;SDS011;16228;48.800;9.002;2023-10-13T04:29:02;169.60;;;161.27;;
211;SDS011;16228;48.800;9.002;2023-10-13T04:31:36;141.73;;;135.07;;
211;SDS011;16228;48.800;9.002;2023-10-13T04:34:22;207.80;;;197.77;;
211;SDS011;16228;48.800;9.002;2023-10-13T04:36:53;170.77;;;163.10;;
211;SDS011;16228;48.800;9.002;2023-10-13T04:39:36;137.60;;;131.03;;
211;SDS011;16228;48.800;9.002;2023-10-13T04:42:05;157.07;;;149.77;;
211;SDS011;16228;48.800;9.002;2023-10-13T04:44:39;130.90;;;124.90;;
211;SDS011;16228;48.800;9.002;2023-10-13T04:47:14;209.03;;;199.60;;
211;SDS011;16228;48.800;9.002;2023-10-13T04:49:49;202.50;;;192.67;;
211;SDS011;16228;48.800;9.002;2023-10-13T04:52:15;127.67;;;121.63;;
211;SDS011;16228;48.800;9.002;2023-10-13T04:55:04;256.07;;;243.73;;
211;SDS011;16228;48.800;9.002;2023-10-13T04:57:59;211.87;;;201.93;;
211;SDS011;16228;48.800;9.002;2023-10-13T05:00:40;214.60;;;204.70;;
211;SDS011;16228;48.800;9.002;2023-10-13T05:03:48;198.83;;;190.00;;
211;SDS011;16228;48.800;9.002;2023-10-13T05:06:48;217.63;;;207.67;;
211;SDS011;16228;48.800;9.002;2023-10-13T05:09:32;184.53;;;176.07;;
211;SDS011;16228;48.800;9.002;2023-10-13T05:12:17;165.27;;;157.80;;
211;SDS011;16228;48.800;9.002;2023-10-13T05:15:01;170.87;;;162.73;;
211;SDS011;16228;48.800;9.002;2023-10-13T05:17:46;209.93;;;199.43;;
211;SDS011;16228;48.800;9.002;2023-10-13T05:20:30;152.47;;;144.97;;
211;SDS011;16228;48.800;9.002;2023-10-13T05:23:16;185.10;;;176.07;;
211;SDS011;16228;48.800;9.002;2023-10-13T05:26:01;243.83;;;232.70;;
211;SDS011;16228;48.800;9.002;2023-10-13T05:28:46;226.50;;;215.77;;
211;SDS011;16228;48.800;9.002;2023-10-13T05:31:30;251.13;;;239.33;;
211;SDS011;16228;48.800;9.002;2023-10-13T05:34:15;190.83;;;181.70;;
211;SDS011;16228;48.800;9.002;2023-10-13T05:36:59;151.73;;;144.83;;
211;SDS011;16228;48.800;9.002;2023-10-13T05:39:45;240.23;;;229.10;;
211;SDS011;16228;48.800;9.002;2023-10-13T05:42:29;237.53;;;226.60;;
211;SDS011;16228;48.800;9.002;2023-10-13T05:45:14;198.63;;;188.97;;
211;SDS011;16228;48.800;9.002;2023-10-13T05:47:58;242.40;;;231.60;;
211;SDS011;16228;48.800;9.002;2023-10-13T05:50:36;197.10;;;188.20;;
211;SDS011;16228;48.800;9.002;2023-10-13T05:53:22;266.23;;;253.63;;
211;SDS011;16228;48.800;9.002;2023-10-13T05:56:08;252.57;;;240.90;;
211;SDS011;16228;48.800;9.002;2023-10-13T05:58:52;266.43;;;253.27;;
211;SDS011;16228;48.800;9.002;2023-10-13T06:01:33;265.30;;;252.37;;
211;SDS011;16228;48.800;9.002;2023-10-13T06:04:18;348.43;;;331.20;;
211;SDS011;16228;48.800;9.002;2023-10-13T06:07:02;312.70;;;298.03;;
211;SDS011;16228;48.800;9.002;2023-10-13T06:09:47;392.57;;;372.57;;
211;SDS011;16228;48.800;9.002;2023-10-13T06:12:32;337.90;;;320.53;;
211;SDS011;16228;48.800;9.002;2023-10-13T06:15:17;391.73;;;371.90;;
211;SDS011;16228;48.800;9.002;2023-10-13T06:18:01;500.23;;;474.33;;
211;SDS011;16228;48.800;9.002;2023-10-13T06:20:46;504.73;;;478.40;;
211;SDS011;16228;48.800;9.002;2023-10-13T06:23:30;541.43;;;512.97;;
211;SDS011;16228;48.800;9.002;2023-10-13T06:26:15;625.90;;;593.33;;
211;SDS011;16228;48.800;9.002;2023-10-13T06:29:00;498.00;;;471.83;;
211;SDS011;16228;48.800;9.002;2023-10-13T06:31:27;584.10;;;553.57;;
211;SDS011;16228;48.800;9.002;2023-10-13T06:33:54;450.20;;;427.87;;
211;SDS011;16228;48.800;9.002;2023-10-13T06:36:21;459.60;;;435.33;;
211;SDS011;16228;48.800;9.002;2023-10-13T06:38:48;554.53;;;525.23;;
211;SDS011;16228;48.800;9.002;2023-10-13T06:41:41;487.17;;;462.63;;
211;SDS011;16228;48.800;9.002;2023-10-13T06:44:10;487.13;;;461.90;;
211;SDS011;16228;48.800;9.002;2023-10-13T06:46:41;457.57;;;434.33;;
211;SDS011;16228;48.800;9.002;2023-10-13T06:49:09;419.40;;;397.93;;
211;SDS011;16228;48.800;9.002;2023-10-13T06:51:38;475.93;;;450.20;;
211;SDS011;16228;48.800;9.002;2023-10-13T06:54:06;499.37;;;472.83;;
211;SDS011;16228;48.800;9.002;2023-10-13T06:56:44;517.43;;;490.43;;
211;SDS011;16228;48.800;9.002;2023-10-13T06:59:13;544.83;;;516.90;;
211;SDS011;16228;48.800;9.002;2023-10-13T07:01:40;490.33;;;466.50;;
211;SDS011;16228;48.800;9.002;2023-10-13T07:04:08;401.93;;;380.20;;
211;SDS011;16228;48.800;9.002;2023-10-13T07:06:40;428.97;;;405.57;;
211;SDS011;16228;48.800;9.002;2023-10-13T07:09:09;554.30;;;525.97;;
211;SDS011;16228;48.800;9.002;2023-10-13T07:11:54;523.77;;;496.07;;
211;SDS011;16228;48.800;9.002;2023-10-13T07:14:27;640.67;;;604.77;;
211;SDS011;16228;48.800;9.002;2023-10-13T07:16:55;588.60;;;553.97;;
211;SDS011;16228;48.800;9.002;2023-10-13T07:19:24;551.00;;;517.73;;
211;SDS011;16228;48.800;9.002;2023-10-13T07:21:53;644.07;;;606.20;;
211;SDS011;16228;48.800;9.002;2023-10-13T07:24:24;739.63;;;681.97;;
211;SDS011;16228;48.800;9.002;2023-10-13T07:26:52;684.53;;;634.43;;
211;SDS011;16228;48.800;9.002;2023-10-13T07:29:29;788.47;;;730.60;;
211;SDS011;16228;48.800;9.002;2023-10-13T07:31:59;418.67;;;386.30;;
211;SDS011;16228;48.800;9.002;2023-10-13T07:34:28;932.00;;;849.27;;
211;SDS011;16228;48.800;9.002;2023-10-13T07:36:57;1604.27;;;996.23;;
211;SDS011;16228;48.800;9.002;2023-10-13T07:39:25;1159.70;;;896.83;;
211;SDS011;16228;48.800;9.002;2023-10-13T07:41:59;1744.70;;;999.90;;
211;SDS011;16228;48.800;9.002;2023-10-13T07:44:32;1853.73;;;999.90;;
211;SDS011;16228;48.800;9.002;2023-10-13T07:47:00;1999.90;;;927.43;;
211;SDS011;16228;48.800;9.002;2023-10-13T07:49:29;1999.90;;;999.90;;
211;SDS011;16228;48.800;9.002;2023-10-13T07:51:58;1646.90;;;990.27;;
211;SDS011;16228;48.800;9.002;2023-10-13T07:54:41;1827.67;;;999.90;;
211;SDS011;16228;48.800;9.002;2023-10-13T07:57:09;1999.90;;;999.90;;
211;SDS011;16228;48.800;9.002;2023-10-13T07:59:41;1999.90;;;772.60;;
211;SDS011;16228;48.800;9.002;2023-10-13T08:02:14;1999.90;;;999.90;;
211;SDS011;16228;48.800;9.002;2023-10-13T08:05:00;1999.90;;;934.60;;
211;SDS011;16228;48.800;9.002;2023-10-13T08:07:30;1999.90;;;780.67;;
211;SDS011;16228;48.800;9.002;2023-10-13T08:09:57;1999.90;;;859.73;;
211;SDS011;16228;48.800;9.002;2023-10-13T08:12:24;1999.90;;;997.80;;
211;SDS011;16228;48.800;9.002;2023-10-13T08:14:54;1999.90;;;656.40;;
211;SDS011;16228;48.800;9.002;2023-10-13T08:17:48;1896.20;;;255.53;;
211;SDS011;16228;48.800;9.002;2023-10-13T08:20:17;1999.90;;;834.70;;
211;SDS011;16228;48.800;9.002;2023-10-13T08:22:46;1999.90;;;550.30;;
211;SDS011;16228;48.800;9.002;2023-10-13T08:25:14;1711.37;;;717.30;;
211;SDS011;16228;48.800;9.002;2023-10-13T08:27:50;1999.90;;;999.90;;
211;SDS011;16228;48.800;9.002;2023-10-13T08:30:50;1999.90;;;999.90;;
211;SDS011;16228;48.800;9.002;2023-10-13T08:33:22;1999.90;;;999.90;;
211;SDS011;16228;48.800;9.002;2023-10-13T08:35:52;1999.90;;;999.90;;
211;SDS011;16228;48.800;9.002;2023-10-13T08:38:43;1999.90;;;999.90;;
211;SDS011;16228;48.800;9.002;2023-10-13T08:41:17;1999.90;;;999.90;;
211;SDS011;16228;48.800;9.002;2023-10-13T08:43:59;1999.90;;;999.90;;
211;SDS011;16228;48.800;9.002;2023-10-13T08:46:30;1999.90;;;999.90;;
211;SDS011;16228;48.800;9.002;2023-10-13T08:49:18;1999.90;;;999.90;;
211;SDS011;16228;48.800;9.002;2023-10-13T08:51:48;1999.90;;;999.90;;
211;SDS011;16228;48.800;9.002;2023-10-13T08:54:30;1999.90;;;999.90;;
211;SDS011;16228;48.800;9.002;2023-10-13T08:57:11;1999.90;;;999.90;;
211;SDS011;16228;48.800;9.002;2023-10-13T08:59:58;1999.90;;;999.90;;
211;SDS011;16228;48.800;9.002;2023-10-13T09:02:46;1999.90;;;999.90;;
211;SDS011;16228;48.800;9.002;2023-10-13T09:05:44;1999.90;;;999.90;;
211;SDS011;16228;48.800;9.002;2023-10-13T09:08:26;1999.90;;;539.13;;
211;SDS011;16228;48.800;9.002;2023-10-13T09:11:01;1999.90;;;698.53;;
211;SDS011;16228;48.800;9.002;2023-10-13T09:13:36;1999.90;;;999.90;;
211;SDS011;16228;48.800;9.002;2023-10-13T09:16:12;1999.90;;;999.90;;
211;SDS011;16228;48.800;9.002;2023-10-13T09:18:48;1999.90;;;999.90;;
211;SDS011;16228;48.800;9.002;2023-10-13T09:21:18;1999.90;;;809.40;;
211;SDS011;16228;48.800;9.002;2023-10-13T09:24:12;1999.90;;;999.90;;
211;SDS011;16228;48.800;9.002;2023-10-13T09:26:58;1999.90;;;999.90;;
211;SDS011;16228;48.800;9.002;2023-10-13T09:29:27;1999.90;;;999.90;;
211;SDS011;16228;48.800;9.002;2023-10-13T09:31:58;1999.90;;;999.90;;
211;SDS011;16228;48.800;9.002;2023-10-13T09:34:28;1999.90;;;999.90;;
211;SDS011;16228;48.800;9.002;2023-10-13T09:36:58;1999.90;;;999.90;;
211;SDS011;16228;48.800;9.002;2023-10-13T09:39:28;1999.90;;;999.90;;
211;SDS011;16228;48.800;9.002;2023-10-13T09:42:09;1999.90;;;999.90;;
211;SDS011;16228;48.800;9.002;2023-10-13T09:44:38;1999.90;;;999.90;;
211;SDS011;16228;48.800;9.002;2023-10-13T09:47:08;1999.90;;;999.90;;
211;SDS011;16228;48.800;9.002;2023-10-13T09:49:43;1999.90;;;999.90;;
211;SDS011;16228;48.800;9.002;2023-10-13T09:52:17;1999.90;;;999.90;;
211;SDS011;16228;48.800;9.002;2023-10-13T09:54:53;1634.20;;;619.90;;
211;SDS011;16228;48.800;9.002;2023-10-13T09:57:29;1999.90;;;999.90;;
211;SDS011;16228;48.800;9.002;2023-10-13T10:00:09;1644.28;;;560.53;;
211;SDS011;16228;48.800;9.002;2023-10-13T10:02:54;1999.90;;;999.90;;
211;SDS011;16228;48.800;9.002;2023-10-13T10:05:31;1999.90;;;999.90;;
211;SDS011;16228;48.800;9.002;2023-10-13T10:08:01;1999.90;;;999.90;;
211;SDS011;16228;48.800;9.002;2023-10-13T10:10:32;1999.90;;;999.90;;
211;SDS011;16228;48.800;9.002;2023-10-13T10:13:13;1999.90;;;999.90;;
211;SDS011;16228;48.800;9.002;2023-10-13T10:15:48;1999.90;;;999.90;;
211;SDS011;16228;48.800;9.002;2023-10-13T10:18:22;1999.90;;;999.90;;
211;SDS011;16228;48.800;9.002;2023-10-13T10:20:50;1999.90;;;999.90;;
211;SDS011;16228;48.800;9.002;2023-10-13T10:23:25;1645.45;;;553.42;;
211;SDS011;16228;48.800;9.002;2023-10-13T10:25:54;1999.90;;;999.90;;
211;SDS011;16228;48.800;9.002;2023-10-13T10:28:36;1999.90;;;999.90;;
211;SDS011;16228;48.800;9.002;2023-10-13T10:31:04;1999.90;;;999.90;;
211;SDS011;16228;48.800;9.002;2023-10-13T10:33:34;1605.88;;;757.85;;
211;SDS011;16228;48.800;9.002;2023-10-13T10:36:02;1999.90;;;999.90;;
211;SDS011;16228;48.800;9.002;2023-10-13T10:38:31;1999.90;;;999.90;;
211;SDS011;16228;48.800;9.002;2023-10-13T10:41:00;1999.90;;;999.90;;
211;SDS011;16228;48.800;9.002;2023-10-13T10:43:29;1999.90;;;999.90;;
211;SDS011;16228;48.800;9.002;2023-10-13T10:46:08;1999.90;;;999.90;;
211;SDS011;16228;48.800;9.002;2023-10-13T10:48:36;1999.90;;;999.90;;
211;SDS011;16228;48.800;9.002;2023-10-13T10:51:08;1999.90;;;999.90;;
211;SDS011;16228;48.800;9.002;2023-10-13T10:53:47;1993.35;;;251.35;;
211;SDS011;16228;48.800;9.002;2023-10-13T10:56:16;1999.90;;;999.90;;
211;SDS011;16228;48.800;9.002;2023-10-13T10:58:50;1999.90;;;999.90;;
211;SDS011;16228;48.800;9.002;2023-10-13T11:01:21;1999.90;;;999.90;;
211;SDS011;16228;48.800;9.002;2023-10-13T11:03:55;1999.90;;;999.90;;
211;SDS011;16228;48.800;9.002;2023-10-13T11:06:33;1999.90;;;999.90;;
211;SDS011;16228;48.800;9.002;2023-10-13T11:09:05;1999.90;;;999.90;;
211;SDS011;16228;48.800;9.002;2023-10-13T11:11:44;1999.90;;;999.90;;
211;SDS011;16228;48.800;9.002;2023-10-13T11:14:19;1999.90;;;999.90;;
211;SDS011;16228;48.800;9.002;2023-10-13T11:16:49;1999.90;;;999.90;;
211;SDS011;16228;48.800;9.002;2023-10-13T11:19:19;1999.90;;;999.90;;
211;SDS011;16228;48.800;9.002;2023-10-13T11:21:53;1999.90;;;999.90;;
211;SDS011;16228;48.800;9.002;2023-10-13T11:24:22;1999.90;;;999.90;;
211;SDS011;16228;48.800;9.002;2023-10-13T11:26:49;1999.90;;;999.90;;
211;SDS011;16228;48.800;9.002;2023-10-13T11:29:16;1999.90;;;999.90;;
211;SDS011;16228;48.800;9.002;2023-10-13T11:31:46;1999.90;;;999.90;;
211;SDS011;16228;48.800;9.002;2023-10-13T11:34:19;1999.90;;;999.90;;
211;SDS011;16228;48.800;9.002;2023-10-13T11:36:46;1999.90;;;999.90;;
211;SDS011;16228;48.800;9.002;2023-10-13T11:39:13;1999.90;;;999.90;;
211;SDS011;16228;48.800;9.002;2023-10-13T11:41:45;1999.90;;;999.90;;
211;SDS011;16228;48.800;9.002;2023-10-13T11:44:19;1999.90;;;999.90;;
211;SDS011;16228;48.800;9.002;2023-10-13T11:46:49;1999.90;;;999.90;;
211;SDS011;16228;48.800;9.002;2023-10-13T11:49:23;1999.90;;;999.90;;
211;SDS011;16228;48.800;9.002;2023-10-13T11:52:02;1999.90;;;999.90;;
211;SDS011;16228;48.800;9.002;2023-10-13T11:54:42;1999.90;;;999.90;;
211;SDS011;16228;48.800;9.002;2023-10-13T11:57:10;1999.90;;;999.90;;
211;SDS011;16228;48.800;9.002;2023-10-13T11:59:37;1999.90;;;999.90;;
211;SDS011;16228;48.800;9.002;2023-10-13T12:02:12;1999.90;;;999.90;;
211;SDS011;16228;48.800;9.002;2023-10-13T12:04:56;1999.90;;;999.90;;
211;SDS011;16228;48.800;9.002;2023-10-13T12:07:24;1999.90;;;999.90;;
211;SDS011;16228;48.800;9.002;2023-10-13T12:10:08;1999.90;;;999.90;;
211;SDS011;16228;48.800;9.002;2023-10-13T12:12:43;1999.90;;;999.90;;
211;SDS011;16228;48.800;9.002;2023-10-13T12:15:11;1999.90;;;999.90;;
211;SDS011;16228;48.800;9.002;2023-10-13T12:17:50;1999.90;;;999.90;;
211;SDS011;16228;48.800;9.002;2023-10-13T12:20:17;1999.90;;;999.90;;
211;SDS011;16228;48.800;9.002;2023-10-13T12:22:58;1999.90;;;999.90;;
211;SDS011;16228;48.800;9.002;2023-10-13T12:25:36;1999.90;;;999.90;;
211;SDS011;16228;48.800;9.002;2023-10-13T12:28:22;1999.90;;;999.90;;
211;SDS011;16228;48.800;9.002;2023-10-13T12:30:52;1999.90;;;999.90;;
211;SDS011;16228;48.800;9.002;2023-10-13T12:33:19;1999.90;;;999.90;;
211;SDS011;16228;48.800;9.002;2023-10-13T12:35:55;1999.90;;;999.90;;
211;SDS011;16228;48.800;9.002;2023-10-13T12:38:32;1999.90;;;999.90;;
211;SDS011;16228;48.800;9.002;2023-10-13T12:41:16;1999.90;;;999.90;;
211;SDS011;16228;48.800;9.002;2023-10-13T12:44:02;1999.90;;;999.90;;
211;SDS011;16228;48.800;9.002;2023-10-13T12:46:48;1999.90;;;999.90;;
211;SDS011;16228;48.800;9.002;2023-10-13T12:49:32;1999.90;;;999.90;;
211;SDS011;16228;48.800;9.002;2023-10-13T12:52:14;1999.90;;;999.90;;
211;SDS011;16228;48.800;9.002;2023-10-13T12:54:45;1999.90;;;999.90;;
211;SDS011;16228;48.800;9.002;2023-10-13T12:57:19;1999.90;;;999.90;;
211;SDS011;16228;48.800;9.002;2023-10-13T12:59:49;1999.90;;;999.90;;
211;SDS011;16228;48.800;9.002;2023-10-13T13:02:19;1999.90;;;999.90;;
211;SDS011;16228;48.800;9.002;2023-10-13T13:04:46;1999.90;;;999.90;;
211;SDS011;16228;48.800;9.002;2023-10-13T13:07:16;1999.90;;;999.90;;
211;SDS011;16228;48.800;9.002;2023-10-13T13:09:43;1999.90;;;999.90;;
211;SDS011;16228;48.800;9.002;2023-10-13T13:12:10;1999.90;;;999.90;;
211;SDS011;16228;48.800;9.002;2023-10-13T13:14:38;1999.90;;;999.90;;
211;SDS011;16228;48.800;9.002;2023-10-13T13:17:12;1999.90;;;999.90;;
211;SDS011;16228;48.800;9.002;2023-10-13T13:19:39;1999.90;;;999.90;;
211;SDS011;16228;48.800;9.002;2023-10-13T13:22:06;1999.90;;;999.90;;
211;SDS011;16228;48.800;9.002;2023-10-13T13:24:37;1999.90;;;999.90;;
211;SDS011;16228;48.800;9.002;2023-10-13T13:27:08;1999.90;;;999.90;;
211;SDS011;16228;48.800;9.002;2023-10-13T13:29:39;1999.90;;;999.90;;
211;SDS011;16228;48.800;9.002;2023-10-13T13:32:06;1999.90;;;999.90;;
211;SDS011;16228;48.800;9.002;2023-10-13T13:34:44;1999.90;;;999.90;;
211;SDS011;16228;48.800;9.002;2023-10-13T13:37:19;1999.90;;;999.90;;
211;SDS011;16228;48.800;9.002;2023-10-13T13:39:46;1999.90;;;999.90;;
211;SDS011;16228;48.800;9.002;2023-10-13T13:42:13;1999.90;;;999.90;;
211;SDS011;16228;48.800;9.002;2023-10-13T13:44:43;1999.90;;;999.90;;
211;SDS011;16228;48.800;9.002;2023-10-13T13:47:11;1999.90;;;999.90;;
211;SDS011;16228;48.800;9.002;2023-10-13T13:49:39;1999.90;;;999.90;;
211;SDS011;16228;48.800;9.002;2023-10-13T13:52:07;1999.90;;;999.90;;
211;SDS011;16228;48.800;9.002;2023-10-13T13:54:34;1999.90;;;999.90;;
211;SDS011;16228;48.800;9.002;2023-10-13T13:57:05;1999.90;;;999.90;;
211;SDS011;16228;48.800;9.002;2023-10-13T13:59:32;1999.90;;;999.90;;
211;SDS011;16228;48.800;9.002;2023-10-13T14:02:01;1999.90;;;999.90;;
211;SDS011;16228;48.800;9.002;2023-10-13T14:04:44;1999.90;;;999.90;;
211;SDS011;16228;48.800;9.002;2023-10-13T14:07:13;1999.90;;;999.90;;
211;SDS011;16228;48.800;9.002;2023-10-13T14:09:41;1999.90;;;999.90;;
211;SDS011;16228;48.800;9.002;2023-10-13T14:12:09;1999.90;;;999.90;;
211;SDS011;16228;48.800;9.002;2023-10-13T14:14:53;1999.90;;;999.90;;
211;SDS011;16228;48.800;9.002;2023-10-13T14:17:22;1999.90;;;999.90;;
211;SDS011;16228;48.800;9.002;2023-10-13T14:19:54;1999.90;;;999.90;;
211;SDS011;16228;48.800;9.002;2023-10-13T14:22:23;847.60;;;347.63;;
211;SDS011;16228;48.800;9.002;2023-10-13T14:24:51;1999.90;;;999.90;;
211;SDS011;16228;48.800;9.002;2023-10-13T14:27:20;1999.90;;;999.90;;
211;SDS011;16228;48.800;9.002;2023-10-13T14:29:49;1999.90;;;999.90;;
211;SDS011;16228;48.800;9.002;2023-10-13T14:32:18;1999.90;;;999.90;;
211;SDS011;16228;48.800;9.002;2023-10-13T14:34:50;1999.90;;;999.90;;
211;SDS011;16228;48.800;9.002;2023-10-13T14:37:21;1999.90;;;999.90;;
211;SDS011;16228;48.800;9.002;2023-10-13T14:39:55;1999.90;;;999.90;;
211;SDS011;16228;48.800;9.002;2023-10-13T14:42:23;1999.90;;;999.90;;
211;SDS011;16228;48.800;9.002;2023-10-13T14:44:50;1999.90;;;999.90;;
211;SDS011;16228;48.800;9.002;2023-10-13T14:47:22;1999.90;;;999.90;;
211;SDS011;16228;48.800;9.002;2023-10-13T14:49:50;1999.90;;;999.90;;
211;SDS011;16228;48.800;9.002;2023-10-13T14:52:20;1999.90;;;999.90;;
211;SDS011;16228;48.800;9.002;2023-10-13T14:54:49;1999.90;;;999.90;;